sensor_id;sensor_type;location;lat;lon;timestamp;P1;durP1;ratioP1;P2;durP2;ratioP2
27539;SDS011;15906;52.046;4.724;2023-05-17T00:00:06;13.55;;;4.50;;
27539;SDS011;15906;52.046;4.724;2023-05-17T00:02:33;15.63;;;4.50;;
27539;SDS011;15906;52.046;4.724;2023-05-17T00:04:59;12.00;;;4.43;;
27539;SDS011;15906;52.046;4.724;2023-05-17T00:07:25;14.38;;;4.25;;
27539;SDS011;15906;52.046;4.724;2023-05-17T00:09:50;12.18;;;4.88;;
27539;SDS011;15906;52.046;4.724;2023-05-17T00:12:16;16.52;;;5.03;;
27539;SDS011;15906;52.046;4.724;2023-05-17T00:14:42;15.48;;;4.38;;
27539;SDS011;15906;52.046;4.724;2023-05-17T00:17:07;21.92;;;5.28;;
27539;SDS011;15906;52.046;4.724;2023-05-17T00:19:33;16.20;;;4.70;;
27539;SDS011;15906;52.046;4.724;2023-05-17T00:21:58;13.63;;;4.25;;
27539;SDS011;15906;52.046;4.724;2023-05-17T00:24:24;13.60;;;4.95;;
27539;SDS011;15906;52.046;4.724;2023-05-17T00:26:51;19.15;;;5.43;;
27539;SDS011;15906;52.046;4.724;2023-05-17T00:29:16;9.38;;;4.63;;
27539;SDS011;15906;52.046;4.724;2023-05-17T00:31:42;20.20;;;4.43;;
27539;SDS011;15906;52.046;4.724;2023-05-17T00:34:07;15.13;;;5.45;;
27539;SDS011;15906;52.046;4.724;2023-05-17T00:36:33;10.10;;;4.85;;
27539;SDS011;15906;52.046;4.724;2023-05-17T00:38:58;16.05;;;4.95;;
27539;SDS011;15906;52.046;4.724;2023-05-17T00:41:24;18.73;;;5.38;;
27539;SDS011;15906;52.046;4.724;2023-05-17T00:43:50;18.73;;;5.55;;
27539;SDS011;15906;52.046;4.724;2023-05-17T00:46:15;19.00;;;4.85;;
27539;SDS011;15906;52.046;4.724;2023-05-17T00:48:41;18.00;;;5.53;;
27539;SDS011;15906;52.046;4.724;2023-05-17T00:51:07;17.33;;;6.00;;
27539;SDS011;15906;52.046;4.724;2023-05-17T00:53:33;15.48;;;4.43;;
27539;SDS011;15906;52.046;4.724;2023-05-17T00:56:01;16.20;;;5.30;;
27539;SDS011;15906;52.046;4.724;2023-05-17T00:58:27;13.77;;;4.93;;
27539;SDS011;15906;52.046;4.724;2023-05-17T01:00:53;15.85;;;5.10;;
27539;SDS011;15906;52.046;4.724;2023-05-17T01:03:18;16.50;;;4.88;;
27539;SDS011;15906;52.046;4.724;2023-05-17T01:05:46;18.63;;;5.80;;
27539;SDS011;15906;52.046;4.724;2023-05-17T01:08:13;11.85;;;4.25;;
27539;SDS011;15906;52.046;4.724;2023-05-17T01:10:41;11.65;;;4.30;;
27539;SDS011;15906;52.046;4.724;2023-05-17T01:13:23;11.75;;;4.70;;
27539;SDS011;15906;52.046;4.724;2023-05-17T01:16:03;12.60;;;4.85;;
27539;SDS011;15906;52.046;4.724;2023-05-17T01:21:05;13.77;;;4.90;;
27539;SDS011;15906;52.046;4.724;2023-05-17T01:26:29;16.83;;;5.57;;
27539;SDS011;15906;52.046;4.724;2023-05-17T01:29:02;13.20;;;4.35;;
27539;SDS011;15906;52.046;4.724;2023-05-17T01:31:31;21.63;;;5.65;;
27539;SDS011;15906;52.046;4.724;2023-05-17T01:33:57;17.20;;;4.85;;
27539;SDS011;15906;52.046;4.724;2023-05-17T01:36:23;11.90;;;4.53;;
27539;SDS011;15906;52.046;4.724;2023-05-17T01:38:50;15.07;;;5.43;;
27539;SDS011;15906;52.046;4.724;2023-05-17T01:41:26;13.63;;;4.00;;
27539;SDS011;15906;52.046;4.724;2023-05-17T01:46:46;21.00;;;4.82;;
27539;SDS011;15906;52.046;4.724;2023-05-17T01:49:20;14.52;;;4.78;;
27539;SDS011;15906;52.046;4.724;2023-05-17T01:54:36;16.00;;;5.45;;
27539;SDS011;15906;52.046;4.724;2023-05-17T01:57:07;22.63;;;4.68;;
27539;SDS011;15906;52.046;4.724;2023-05-17T01:59:34;21.88;;;5.18;;
27539;SDS011;15906;52.046;4.724;2023-05-17T02:02:02;15.23;;;4.75;;
27539;SDS011;15906;52.046;4.724;2023-05-17T02:04:33;13.73;;;4.80;;
27539;SDS011;15906;52.046;4.724;2023-05-17T02:07:00;11.15;;;4.05;;
27539;SDS011;15906;52.046;4.724;2023-05-17T02:09:28;13.88;;;4.65;;
27539;SDS011;15906;52.046;4.724;2023-05-17T02:11:54;22.90;;;5.28;;
27539;SDS011;15906;52.046;4.724;2023-05-17T02:14:20;13.15;;;3.83;;
27539;SDS011;15906;52.046;4.724;2023-05-17T02:16:46;14.80;;;4.85;;
27539;SDS011;15906;52.046;4.724;2023-05-17T02:19:12;18.52;;;5.47;;
27539;SDS011;15906;52.046;4.724;2023-05-17T02:21:38;20.40;;;4.70;;
27539;SDS011;15906;52.046;4.724;2023-05-17T02:24:04;20.02;;;6.07;;
27539;SDS011;15906;52.046;4.724;2023-05-17T02:26:29;20.42;;;4.85;;
27539;SDS011;15906;52.046;4.724;2023-05-17T02:28:55;19.02;;;5.53;;
27539;SDS011;15906;52.046;4.724;2023-05-17T02:31:21;19.80;;;4.82;;
27539;SDS011;15906;52.046;4.724;2023-05-17T02:33:48;14.10;;;4.85;;
27539;SDS011;15906;52.046;4.724;2023-05-17T02:36:14;14.52;;;4.75;;
27539;SDS011;15906;52.046;4.724;2023-05-17T02:38:40;14.80;;;4.70;;
27539;SDS011;15906;52.046;4.724;2023-05-17T02:41:05;16.40;;;4.70;;
27539;SDS011;15906;52.046;4.724;2023-05-17T02:43:31;14.90;;;4.85;;
27539;SDS011;15906;52.046;4.724;2023-05-17T02:45:56;14.73;;;4.65;;
27539;SDS011;15906;52.046;4.724;2023-05-17T02:48:22;16.55;;;4.72;;
27539;SDS011;15906;52.046;4.724;2023-05-17T02:50:47;14.02;;;4.20;;
27539;SDS011;15906;52.046;4.724;2023-05-17T02:53:13;12.48;;;4.55;;
27539;SDS011;15906;52.046;4.724;2023-05-17T02:55:38;14.95;;;5.10;;
27539;SDS011;15906;52.046;4.724;2023-05-17T02:58:04;12.98;;;4.97;;
27539;SDS011;15906;52.046;4.724;2023-05-17T03:00:30;19.08;;;4.88;;
27539;SDS011;15906;52.046;4.724;2023-05-17T03:02:55;18.58;;;5.03;;
27539;SDS011;15906;52.046;4.724;2023-05-17T03:05:21;19.08;;;5.35;;
27539;SDS011;15906;52.046;4.724;2023-05-17T03:07:46;13.52;;;5.15;;
27539;SDS011;15906;52.046;4.724;2023-05-17T03:10:12;16.35;;;5.35;;
27539;SDS011;15906;52.046;4.724;2023-05-17T03:12:37;18.42;;;5.30;;
27539;SDS011;15906;52.046;4.724;2023-05-17T03:15:03;13.25;;;4.80;;
27539;SDS011;15906;52.046;4.724;2023-05-17T03:17:29;19.20;;;5.57;;
27539;SDS011;15906;52.046;4.724;2023-05-17T03:19:55;13.52;;;5.18;;
27539;SDS011;15906;52.046;4.724;2023-05-17T03:22:20;11.23;;;4.30;;
27539;SDS011;15906;52.046;4.724;2023-05-17T03:24:46;26.83;;;6.75;;
27539;SDS011;15906;52.046;4.724;2023-05-17T03:27:11;14.30;;;5.63;;
27539;SDS011;15906;52.046;4.724;2023-05-17T03:29:37;10.27;;;4.28;;
27539;SDS011;15906;52.046;4.724;2023-05-17T03:32:03;12.15;;;5.05;;
27539;SDS011;15906;52.046;4.724;2023-05-17T03:34:28;12.77;;;5.10;;
27539;SDS011;15906;52.046;4.724;2023-05-17T03:36:54;13.02;;;5.18;;
27539;SDS011;15906;52.046;4.724;2023-05-17T03:39:20;14.93;;;4.88;;
27539;SDS011;15906;52.046;4.724;2023-05-17T03:41:45;15.90;;;5.10;;
27539;SDS011;15906;52.046;4.724;2023-05-17T03:44:11;21.05;;;6.07;;
27539;SDS011;15906;52.046;4.724;2023-05-17T03:46:36;16.63;;;5.72;;
27539;SDS011;15906;52.046;4.724;2023-05-17T03:49:02;13.32;;;4.80;;
27539;SDS011;15906;52.046;4.724;2023-05-17T03:51:27;19.10;;;4.57;;
27539;SDS011;15906;52.046;4.724;2023-05-17T03:53:56;16.05;;;3.92;;
27539;SDS011;15906;52.046;4.724;2023-05-17T03:56:23;13.00;;;3.90;;
27539;SDS011;15906;52.046;4.724;2023-05-17T03:58:49;19.30;;;4.80;;
27539;SDS011;15906;52.046;4.724;2023-05-17T04:01:14;16.10;;;4.18;;
27539;SDS011;15906;52.046;4.724;2023-05-17T04:03:41;15.60;;;3.78;;
27539;SDS011;15906;52.046;4.724;2023-05-17T04:06:07;12.35;;;3.15;;
27539;SDS011;15906;52.046;4.724;2023-05-17T04:08:33;13.52;;;3.25;;
27539;SDS011;15906;52.046;4.724;2023-05-17T04:10:59;14.10;;;4.10;;
27539;SDS011;15906;52.046;4.724;2023-05-17T04:13:33;10.05;;;3.40;;
27539;SDS011;15906;52.046;4.724;2023-05-17T04:16:03;14.82;;;3.95;;
27539;SDS011;15906;52.046;4.724;2023-05-17T04:18:29;14.35;;;3.60;;
27539;SDS011;15906;52.046;4.724;2023-05-17T04:20:54;15.27;;;3.05;;
27539;SDS011;15906;52.046;4.724;2023-05-17T04:23:20;16.88;;;3.42;;
27539;SDS011;15906;52.046;4.724;2023-05-17T04:25:45;19.63;;;4.00;;
27539;SDS011;15906;52.046;4.724;2023-05-17T04:28:11;14.27;;;3.28;;
27539;SDS011;15906;52.046;4.724;2023-05-17T04:30:40;14.55;;;3.47;;
27539;SDS011;15906;52.046;4.724;2023-05-17T04:33:06;18.67;;;3.95;;
27539;SDS011;15906;52.046;4.724;2023-05-17T04:35:32;15.10;;;3.33;;
27539;SDS011;15906;52.046;4.724;2023-05-17T04:37:57;24.25;;;3.60;;
27539;SDS011;15906;52.046;4.724;2023-05-17T04:40:23;15.60;;;4.20;;
27539;SDS011;15906;52.046;4.724;2023-05-17T04:42:49;20.88;;;3.42;;
27539;SDS011;15906;52.046;4.724;2023-05-17T04:45:14;18.27;;;3.38;;
27539;SDS011;15906;52.046;4.724;2023-05-17T04:47:40;20.60;;;4.22;;
27539;SDS011;15906;52.046;4.724;2023-05-17T04:50:05;18.65;;;3.45;;
27539;SDS011;15906;52.046;4.724;2023-05-17T04:52:31;14.93;;;3.10;;
27539;SDS011;15906;52.046;4.724;2023-05-17T04:54:57;13.80;;;3.20;;
27539;SDS011;15906;52.046;4.724;2023-05-17T04:57:22;13.00;;;3.00;;
27539;SDS011;15906;52.046;4.724;2023-05-17T04:59:48;19.40;;;3.78;;
27539;SDS011;15906;52.046;4.724;2023-05-17T05:02:13;10.20;;;3.17;;
27539;SDS011;15906;52.046;4.724;2023-05-17T05:04:39;15.57;;;3.53;;
27539;SDS011;15906;52.046;4.724;2023-05-17T05:07:04;17.67;;;3.90;;
27539;SDS011;15906;52.046;4.724;2023-05-17T05:09:30;15.63;;;3.22;;
27539;SDS011;15906;52.046;4.724;2023-05-17T05:11:55;17.33;;;3.15;;
27539;SDS011;15906;52.046;4.724;2023-05-17T05:14:21;13.68;;;3.38;;
27539;SDS011;15906;52.046;4.724;2023-05-17T05:16:46;21.35;;;3.72;;
27539;SDS011;15906;52.046;4.724;2023-05-17T05:19:12;14.93;;;3.72;;
27539;SDS011;15906;52.046;4.724;2023-05-17T05:21:37;16.88;;;3.17;;
27539;SDS011;15906;52.046;4.724;2023-05-17T05:24:03;16.52;;;2.90;;
27539;SDS011;15906;52.046;4.724;2023-05-17T05:26:29;18.77;;;3.17;;
27539;SDS011;15906;52.046;4.724;2023-05-17T05:28:54;22.08;;;4.00;;
27539;SDS011;15906;52.046;4.724;2023-05-17T05:31:20;12.88;;;3.55;;
27539;SDS011;15906;52.046;4.724;2023-05-17T05:33:45;22.60;;;4.47;;
27539;SDS011;15906;52.046;4.724;2023-05-17T05:36:11;22.05;;;3.55;;
27539;SDS011;15906;52.046;4.724;2023-05-17T05:38:37;15.80;;;3.28;;
27539;SDS011;15906;52.046;4.724;2023-05-17T05:41:02;18.55;;;4.00;;
27539;SDS011;15906;52.046;4.724;2023-05-17T05:43:28;13.02;;;2.40;;
27539;SDS011;15906;52.046;4.724;2023-05-17T05:45:53;13.10;;;2.72;;
27539;SDS011;15906;52.046;4.724;2023-05-17T05:48:19;23.25;;;3.35;;
27539;SDS011;15906;52.046;4.724;2023-05-17T05:50:44;19.83;;;3.22;;
27539;SDS011;15906;52.046;4.724;2023-05-17T05:53:10;12.52;;;2.53;;
27539;SDS011;15906;52.046;4.724;2023-05-17T05:55:39;16.02;;;3.33;;
27539;SDS011;15906;52.046;4.724;2023-05-17T05:58:06;14.50;;;4.07;;
27539;SDS011;15906;52.046;4.724;2023-05-17T06:00:31;13.98;;;2.80;;
27539;SDS011;15906;52.046;4.724;2023-05-17T06:02:57;17.35;;;3.38;;
27539;SDS011;15906;52.046;4.724;2023-05-17T06:05:23;19.88;;;4.35;;
27539;SDS011;15906;52.046;4.724;2023-05-17T06:07:49;17.52;;;2.67;;
27539;SDS011;15906;52.046;4.724;2023-05-17T06:10:14;18.90;;;3.53;;
27539;SDS011;15906;52.046;4.724;2023-05-17T06:12:40;19.17;;;3.17;;
27539;SDS011;15906;52.046;4.724;2023-05-17T06:15:05;17.40;;;2.92;;
27539;SDS011;15906;52.046;4.724;2023-05-17T06:17:32;18.70;;;3.30;;
27539;SDS011;15906;52.046;4.724;2023-05-17T06:19:57;15.63;;;2.67;;
27539;SDS011;15906;52.046;4.724;2023-05-17T06:22:23;17.52;;;2.97;;
27539;SDS011;15906;52.046;4.724;2023-05-17T06:24:48;17.80;;;3.53;;
27539;SDS011;15906;52.046;4.724;2023-05-17T06:27:14;18.33;;;2.95;;
27539;SDS011;15906;52.046;4.724;2023-05-17T06:29:40;13.13;;;2.55;;
27539;SDS011;15906;52.046;4.724;2023-05-17T06:32:05;18.15;;;3.08;;
27539;SDS011;15906;52.046;4.724;2023-05-17T06:34:31;15.18;;;3.08;;
27539;SDS011;15906;52.046;4.724;2023-05-17T06:36:57;19.08;;;2.85;;
27539;SDS011;15906;52.046;4.724;2023-05-17T06:39:22;19.52;;;3.38;;
27539;SDS011;15906;52.046;4.724;2023-05-17T06:41:48;12.55;;;2.60;;
27539;SDS011;15906;52.046;4.724;2023-05-17T06:44:14;13.90;;;2.50;;
27539;SDS011;15906;52.046;4.724;2023-05-17T06:46:39;17.17;;;3.13;;
27539;SDS011;15906;52.046;4.724;2023-05-17T06:49:05;13.40;;;2.47;;
27539;SDS011;15906;52.046;4.724;2023-05-17T06:51:30;13.52;;;2.70;;
27539;SDS011;15906;52.046;4.724;2023-05-17T06:53:56;18.80;;;3.05;;
27539;SDS011;15906;52.046;4.724;2023-05-17T06:56:21;13.80;;;2.85;;
27539;SDS011;15906;52.046;4.724;2023-05-17T06:58:47;14.27;;;3.47;;
27539;SDS011;15906;52.046;4.724;2023-05-17T07:01:13;13.23;;;2.17;;
27539;SDS011;15906;52.046;4.724;2023-05-17T07:03:38;14.68;;;2.50;;
27539;SDS011;15906;52.046;4.724;2023-05-17T07:06:04;11.52;;;2.10;;
27539;SDS011;15906;52.046;4.724;2023-05-17T07:08:29;11.15;;;2.05;;
27539;SDS011;15906;52.046;4.724;2023-05-17T07:10:55;12.13;;;2.00;;
27539;SDS011;15906;52.046;4.724;2023-05-17T07:13:20;8.07;;;2.08;;
27539;SDS011;15906;52.046;4.724;2023-05-17T07:15:46;12.55;;;2.63;;
27539;SDS011;15906;52.046;4.724;2023-05-17T07:18:12;7.82;;;2.25;;
27539;SDS011;15906;52.046;4.724;2023-05-17T07:20:38;7.97;;;2.38;;
27539;SDS011;15906;52.046;4.724;2023-05-17T07:23:03;9.48;;;2.10;;
27539;SDS011;15906;52.046;4.724;2023-05-17T07:25:29;11.63;;;2.05;;
27539;SDS011;15906;52.046;4.724;2023-05-17T07:27:55;10.18;;;1.73;;
27539;SDS011;15906;52.046;4.724;2023-05-17T07:30:21;10.23;;;1.98;;
27539;SDS011;15906;52.046;4.724;2023-05-17T07:32:46;12.75;;;3.42;;
27539;SDS011;15906;52.046;4.724;2023-05-17T07:35:12;9.25;;;1.60;;
27539;SDS011;15906;52.046;4.724;2023-05-17T07:37:37;9.02;;;2.15;;
27539;SDS011;15906;52.046;4.724;2023-05-17T07:40:03;10.32;;;2.10;;
27539;SDS011;15906;52.046;4.724;2023-05-17T07:42:29;6.45;;;1.50;;
27539;SDS011;15906;52.046;4.724;2023-05-17T07:44:55;11.20;;;1.77;;
27539;SDS011;15906;52.046;4.724;2023-05-17T07:47:20;9.15;;;2.00;;
27539;SDS011;15906;52.046;4.724;2023-05-17T07:49:46;8.95;;;1.98;;
27539;SDS011;15906;52.046;4.724;2023-05-17T07:52:12;9.85;;;2.17;;
27539;SDS011;15906;52.046;4.724;2023-05-17T07:54:37;9.93;;;1.58;;
27539;SDS011;15906;52.046;4.724;2023-05-17T07:57:03;8.07;;;1.95;;
27539;SDS011;15906;52.046;4.724;2023-05-17T07:59:28;8.10;;;1.90;;
27539;SDS011;15906;52.046;4.724;2023-05-17T08:01:54;8.23;;;1.92;;
27539;SDS011;15906;52.046;4.724;2023-05-17T08:04:20;14.57;;;2.20;;
27539;SDS011;15906;52.046;4.724;2023-05-17T08:06:48;10.55;;;1.90;;
27539;SDS011;15906;52.046;4.724;2023-05-17T08:09:14;10.13;;;1.48;;
27539;SDS011;15906;52.046;4.724;2023-05-17T08:11:40;9.00;;;1.75;;
27539;SDS011;15906;52.046;4.724;2023-05-17T08:14:10;11.50;;;2.28;;
27539;SDS011;15906;52.046;4.724;2023-05-17T08:16:48;7.15;;;1.88;;
27539;SDS011;15906;52.046;4.724;2023-05-17T08:19:15;8.88;;;2.00;;
27539;SDS011;15906;52.046;4.724;2023-05-17T08:21:42;6.55;;;1.80;;
27539;SDS011;15906;52.046;4.724;2023-05-17T08:24:08;12.23;;;2.22;;
27539;SDS011;15906;52.046;4.724;2023-05-17T08:26:34;10.32;;;2.15;;
27539;SDS011;15906;52.046;4.724;2023-05-17T08:29:00;9.77;;;1.88;;
27539;SDS011;15906;52.046;4.724;2023-05-17T08:31:26;6.43;;;1.90;;
27539;SDS011;15906;52.046;4.724;2023-05-17T08:33:52;10.60;;;1.70;;
27539;SDS011;15906;52.046;4.724;2023-05-17T08:36:18;4.82;;;1.65;;
27539;SDS011;15906;52.046;4.724;2023-05-17T08:38:44;9.93;;;2.42;;
27539;SDS011;15906;52.046;4.724;2023-05-17T08:41:10;6.28;;;1.40;;
27539;SDS011;15906;52.046;4.724;2023-05-17T08:43:36;10.27;;;1.60;;
27539;SDS011;15906;52.046;4.724;2023-05-17T08:46:03;8.50;;;1.55;;
27539;SDS011;15906;52.046;4.724;2023-05-17T08:48:29;6.78;;;1.58;;
27539;SDS011;15906;52.046;4.724;2023-05-17T08:50:55;5.72;;;1.50;;
27539;SDS011;15906;52.046;4.724;2023-05-17T08:53:24;4.38;;;1.30;;
27539;SDS011;15906;52.046;4.724;2023-05-17T08:55:50;6.88;;;1.67;;
27539;SDS011;15906;52.046;4.724;2023-05-17T08:58:22;11.50;;;1.98;;
27539;SDS011;15906;52.046;4.724;2023-05-17T09:00:50;7.55;;;1.25;;
27539;SDS011;15906;52.046;4.724;2023-05-17T09:03:20;10.27;;;1.60;;
27539;SDS011;15906;52.046;4.724;2023-05-17T09:05:47;8.85;;;1.70;;
27539;SDS011;15906;52.046;4.724;2023-05-17T09:08:14;10.57;;;1.67;;
27539;SDS011;15906;52.046;4.724;2023-05-17T09:10:40;5.53;;;1.30;;
27539;SDS011;15906;52.046;4.724;2023-05-17T09:13:07;7.05;;;1.40;;
27539;SDS011;15906;52.046;4.724;2023-05-17T09:15:35;5.82;;;1.50;;
27539;SDS011;15906;52.046;4.724;2023-05-17T09:18:02;5.57;;;1.40;;
27539;SDS011;15906;52.046;4.724;2023-05-17T09:20:27;8.98;;;1.90;;
27539;SDS011;15906;52.046;4.724;2023-05-17T09:23:01;13.45;;;2.28;;
27539;SDS011;15906;52.046;4.724;2023-05-17T09:25:28;6.60;;;1.45;;
27539;SDS011;15906;52.046;4.724;2023-05-17T09:27:55;7.20;;;1.40;;
27539;SDS011;15906;52.046;4.724;2023-05-17T09:30:29;11.93;;;2.72;;
27539;SDS011;15906;52.046;4.724;2023-05-17T09:32:56;14.00;;;2.28;;
27539;SDS011;15906;52.046;4.724;2023-05-17T09:35:29;8.30;;;2.00;;
27539;SDS011;15906;52.046;4.724;2023-05-17T09:38:08;9.60;;;2.03;;
27539;SDS011;15906;52.046;4.724;2023-05-17T09:40:42;8.45;;;1.60;;
27539;SDS011;15906;52.046;4.724;2023-05-17T09:43:09;8.20;;;1.70;;
27539;SDS011;15906;52.046;4.724;2023-05-17T09:45:36;8.68;;;2.67;;
27539;SDS011;15906;52.046;4.724;2023-05-17T09:48:24;10.82;;;1.67;;
27539;SDS011;15906;52.046;4.724;2023-05-17T09:50:49;5.90;;;1.80;;
27539;SDS011;15906;52.046;4.724;2023-05-17T09:53:30;5.60;;;1.58;;
27539;SDS011;15906;52.046;4.724;2023-05-17T09:55:58;9.50;;;1.95;;
27539;SDS011;15906;52.046;4.724;2023-05-17T09:58:24;8.68;;;1.90;;
27539;SDS011;15906;52.046;4.724;2023-05-17T10:00:51;6.25;;;1.90;;
27539;SDS011;15906;52.046;4.724;2023-05-17T10:03:18;10.95;;;2.22;;
27539;SDS011;15906;52.046;4.724;2023-05-17T10:05:44;8.02;;;1.83;;
27539;SDS011;15906;52.046;4.724;2023-05-17T10:08:12;9.07;;;2.13;;
27539;SDS011;15906;52.046;4.724;2023-05-17T10:10:39;7.82;;;1.73;;
27539;SDS011;15906;52.046;4.724;2023-05-17T10:13:05;5.82;;;1.65;;
27539;SDS011;15906;52.046;4.724;2023-05-17T10:15:36;6.60;;;1.90;;
27539;SDS011;15906;52.046;4.724;2023-05-17T10:18:03;4.93;;;2.00;;
27539;SDS011;15906;52.046;4.724;2023-05-17T10:20:31;5.55;;;1.50;;
27539;SDS011;15906;52.046;4.724;2023-05-17T10:22:58;5.80;;;1.80;;
27539;SDS011;15906;52.046;4.724;2023-05-17T10:25:27;7.35;;;1.88;;
27539;SDS011;15906;52.046;4.724;2023-05-17T10:27:53;8.35;;;2.10;;
27539;SDS011;15906;52.046;4.724;2023-05-17T10:30:19;7.22;;;1.52;;
27539;SDS011;15906;52.046;4.724;2023-05-17T10:32:45;5.25;;;1.45;;
27539;SDS011;15906;52.046;4.724;2023-05-17T10:35:12;8.75;;;1.75;;
27539;SDS011;15906;52.046;4.724;2023-05-17T10:37:39;7.20;;;1.85;;
27539;SDS011;15906;52.046;4.724;2023-05-17T10:40:06;5.25;;;1.40;;
27539;SDS011;15906;52.046;4.724;2023-05-17T10:42:40;8.77;;;1.90;;
27539;SDS011;15906;52.046;4.724;2023-05-17T10:45:10;6.50;;;2.20;;
27539;SDS011;15906;52.046;4.724;2023-05-17T10:47:39;5.20;;;1.90;;
27539;SDS011;15906;52.046;4.724;2023-05-17T10:50:10;6.85;;;1.60;;
27539;SDS011;15906;52.046;4.724;2023-05-17T10:52:46;11.80;;;1.73;;
27539;SDS011;15906;52.046;4.724;2023-05-17T10:55:13;10.32;;;2.15;;
27539;SDS011;15906;52.046;4.724;2023-05-17T10:58:07;8.55;;;2.15;;
27539;SDS011;15906;52.046;4.724;2023-05-17T11:00:42;8.45;;;1.70;;
27539;SDS011;15906;52.046;4.724;2023-05-17T11:03:19;6.82;;;1.67;;
27539;SDS011;15906;52.046;4.724;2023-05-17T11:08:44;8.75;;;2.28;;
27539;SDS011;15906;52.046;4.724;2023-05-17T11:11:16;6.53;;;1.83;;
27539;SDS011;15906;52.046;4.724;2023-05-17T11:13:44;5.95;;;1.80;;
27539;SDS011;15906;52.046;4.724;2023-05-17T11:16:15;7.63;;;1.88;;
27539;SDS011;15906;52.046;4.724;2023-05-17T11:18:48;6.55;;;2.15;;
27539;SDS011;15906;52.046;4.724;2023-05-17T11:21:18;9.80;;;2.00;;
27539;SDS011;15906;52.046;4.724;2023-05-17T11:23:46;13.80;;;2.53;;
27539;SDS011;15906;52.046;4.724;2023-05-17T11:26:16;6.15;;;1.73;;
27539;SDS011;15906;52.046;4.724;2023-05-17T11:29:04;8.93;;;2.10;;
27539;SDS011;15906;52.046;4.724;2023-05-17T11:31:32;13.35;;;2.15;;
27539;SDS011;15906;52.046;4.724;2023-05-17T11:34:06;10.65;;;2.40;;
27539;SDS011;15906;52.046;4.724;2023-05-17T11:36:33;8.57;;;2.33;;
27539;SDS011;15906;52.046;4.724;2023-05-17T11:39:18;10.02;;;2.03;;
27539;SDS011;15906;52.046;4.724;2023-05-17T11:41:50;11.45;;;2.30;;
27539;SDS011;15906;52.046;4.724;2023-05-17T11:44:30;11.35;;;2.28;;
27539;SDS011;15906;52.046;4.724;2023-05-17T11:47:04;7.97;;;2.05;;
27539;SDS011;15906;52.046;4.724;2023-05-17T11:49:36;10.52;;;2.45;;
27539;SDS011;15906;52.046;4.724;2023-05-17T11:52:06;7.32;;;2.00;;
27539;SDS011;15906;52.046;4.724;2023-05-17T11:54:32;14.88;;;2.50;;
27539;SDS011;15906;52.046;4.724;2023-05-17T11:56:58;8.80;;;2.35;;
27539;SDS011;15906;52.046;4.724;2023-05-17T11:59:26;12.40;;;2.67;;
27539;SDS011;15906;52.046;4.724;2023-05-17T12:01:52;9.52;;;2.03;;
27539;SDS011;15906;52.046;4.724;2023-05-17T12:04:24;10.70;;;2.75;;
27539;SDS011;15906;52.046;4.724;2023-05-17T12:06:51;10.85;;;2.35;;
27539;SDS011;15906;52.046;4.724;2023-05-17T12:09:19;10.88;;;2.05;;
27539;SDS011;15906;52.046;4.724;2023-05-17T12:11:46;9.43;;;1.88;;
27539;SDS011;15906;52.046;4.724;2023-05-17T12:14:15;7.53;;;2.00;;
27539;SDS011;15906;52.046;4.724;2023-05-17T12:16:42;7.32;;;1.63;;
27539;SDS011;15906;52.046;4.724;2023-05-17T12:19:17;6.93;;;1.80;;
27539;SDS011;15906;52.046;4.724;2023-05-17T12:21:44;7.93;;;2.85;;
27539;SDS011;15906;52.046;4.724;2023-05-17T12:24:10;8.73;;;2.10;;
27539;SDS011;15906;52.046;4.724;2023-05-17T12:26:41;7.57;;;2.25;;
27539;SDS011;15906;52.046;4.724;2023-05-17T12:29:08;7.65;;;2.08;;
27539;SDS011;15906;52.046;4.724;2023-05-17T12:31:35;11.65;;;2.22;;
27539;SDS011;15906;52.046;4.724;2023-05-17T12:34:04;12.93;;;2.58;;
27539;SDS011;15906;52.046;4.724;2023-05-17T12:36:31;6.57;;;2.00;;
27539;SDS011;15906;52.046;4.724;2023-05-17T12:38:57;9.02;;;2.20;;
27539;SDS011;15906;52.046;4.724;2023-05-17T12:41:24;9.07;;;2.58;;
27539;SDS011;15906;52.046;4.724;2023-05-17T12:43:51;7.93;;;2.45;;
27539;SDS011;15906;52.046;4.724;2023-05-17T12:46:21;8.30;;;2.35;;
27539;SDS011;15906;52.046;4.724;2023-05-17T12:48:48;8.55;;;2.05;;
27539;SDS011;15906;52.046;4.724;2023-05-17T12:51:16;11.68;;;2.63;;
27539;SDS011;15906;52.046;4.724;2023-05-17T12:53:49;10.00;;;2.53;;
27539;SDS011;15906;52.046;4.724;2023-05-17T12:56:20;13.05;;;2.70;;
27539;SDS011;15906;52.046;4.724;2023-05-17T12:59:08;11.80;;;2.60;;
27539;SDS011;15906;52.046;4.724;2023-05-17T13:01:39;11.77;;;2.50;;
27539;SDS011;15906;52.046;4.724;2023-05-17T13:04:31;8.90;;;2.13;;
27539;SDS011;15906;52.046;4.724;2023-05-17T13:06:58;9.77;;;2.35;;
27539;SDS011;15906;52.046;4.724;2023-05-17T13:09:25;9.05;;;2.22;;
27539;SDS011;15906;52.046;4.724;2023-05-17T13:19:46;8.48;;;2.85;;
27539;SDS011;15906;52.046;4.724;2023-05-17T13:22:12;11.73;;;2.60;;
27539;SDS011;15906;52.046;4.724;2023-05-17T13:24:39;7.90;;;2.15;;
27539;SDS011;15906;52.046;4.724;2023-05-17T13:27:05;11.77;;;2.53;;
27539;SDS011;15906;52.046;4.724;2023-05-17T13:29:32;8.95;;;2.08;;
27539;SDS011;15906;52.046;4.724;2023-05-17T13:31:58;7.05;;;1.88;;
27539;SDS011;15906;52.046;4.724;2023-05-17T13:34:24;10.10;;;2.15;;
27539;SDS011;15906;52.046;4.724;2023-05-17T13:36:50;6.85;;;1.80;;
27539;SDS011;15906;52.046;4.724;2023-05-17T13:39:15;6.78;;;1.95;;
27539;SDS011;15906;52.046;4.724;2023-05-17T13:41:41;11.13;;;2.40;;
27539;SDS011;15906;52.046;4.724;2023-05-17T13:44:07;8.98;;;2.10;;
27539;SDS011;15906;52.046;4.724;2023-05-17T13:46:33;13.85;;;2.42;;
27539;SDS011;15906;52.046;4.724;2023-05-17T13:48:59;9.75;;;2.60;;
27539;SDS011;15906;52.046;4.724;2023-05-17T13:51:26;9.13;;;2.28;;
27539;SDS011;15906;52.046;4.724;2023-05-17T13:53:52;10.80;;;2.50;;
27539;SDS011;15906;52.046;4.724;2023-05-17T13:56:18;10.23;;;2.10;;
27539;SDS011;15906;52.046;4.724;2023-05-17T13:58:43;9.77;;;2.38;;
27539;SDS011;15906;52.046;4.724;2023-05-17T14:01:09;8.68;;;2.50;;
27539;SDS011;15906;52.046;4.724;2023-05-17T14:03:35;12.55;;;2.20;;
27539;SDS011;15906;52.046;4.724;2023-05-17T14:06:04;9.65;;;2.63;;
27539;SDS011;15906;52.046;4.724;2023-05-17T14:08:30;8.70;;;2.35;;
27539;SDS011;15906;52.046;4.724;2023-05-17T14:10:55;12.73;;;2.95;;
27539;SDS011;15906;52.046;4.724;2023-05-17T14:13:21;8.98;;;2.60;;
27539;SDS011;15906;52.046;4.724;2023-05-17T14:15:47;12.13;;;2.75;;
27539;SDS011;15906;52.046;4.724;2023-05-17T14:18:12;18.00;;;3.38;;
27539;SDS011;15906;52.046;4.724;2023-05-17T14:20:38;12.30;;;2.65;;
27539;SDS011;15906;52.046;4.724;2023-05-17T14:23:04;11.10;;;2.50;;
27539;SDS011;15906;52.046;4.724;2023-05-17T14:25:30;12.43;;;2.75;;
27539;SDS011;15906;52.046;4.724;2023-05-17T14:27:56;8.73;;;2.22;;
27539;SDS011;15906;52.046;4.724;2023-05-17T14:30:22;15.50;;;2.22;;
27539;SDS011;15906;52.046;4.724;2023-05-17T14:32:47;11.95;;;2.42;;
27539;SDS011;15906;52.046;4.724;2023-05-17T14:35:13;13.68;;;2.30;;
27539;SDS011;15906;52.046;4.724;2023-05-17T14:37:40;9.55;;;2.75;;
27539;SDS011;15906;52.046;4.724;2023-05-17T14:40:06;7.72;;;3.10;;
27539;SDS011;15906;52.046;4.724;2023-05-17T14:42:32;10.75;;;2.50;;
27539;SDS011;15906;52.046;4.724;2023-05-17T14:44:57;11.55;;;2.40;;
27539;SDS011;15906;52.046;4.724;2023-05-17T14:47:23;13.18;;;2.67;;
27539;SDS011;15906;52.046;4.724;2023-05-17T14:49:49;12.88;;;2.55;;
27539;SDS011;15906;52.046;4.724;2023-05-17T14:52:14;11.90;;;2.80;;
27539;SDS011;15906;52.046;4.724;2023-05-17T14:54:40;15.02;;;2.83;;
27539;SDS011;15906;52.046;4.724;2023-05-17T14:57:06;11.77;;;2.88;;
27539;SDS011;15906;52.046;4.724;2023-05-17T14:59:35;9.40;;;2.55;;